Greystone, Colorado
Current Conditions -  °F | °C
As of 5:53 PM on Wednesday 22 Oct 2014 (Local Time) from KVEL Reporting Station
Clear Clear  
Wind Chill: 58°   Ceiling: Unl
Heat Index: 58°   Visibility: 10mi
Dew Point: 38°   Wind: 5mph
Humidity: 47%   Direction: 130°SE
Pressure: 30.14"   Gusts: NA
Location:  40.7245°N, 108.541°W
Report Text: KVEL 222353Z AUTO 13004KT 10SM CLR 14/03 A3014 RMK AO2 SLP180 T01440033 10161 20117 55002
Loading
Personal Weather Stations






























Interactive Weather Map
Tropical Storm Tracking
New forecast layout! Learn more

10-Day Weather Forecast

Advertisements
Track Severe Weather on mobile